Mehama, Oregon
Current Conditions -  °F | °C
As of 11:56 AM on Thursday 23 Oct 2014 (Local Time) from KSLE Reporting Station
Broken Clouds Broken Clouds  
Wind Chill: 15°   Ceiling: 4700
Heat Index: 15°   Visibility: 10mi
Dew Point: 12°   Wind: 14mph
Humidity: 83%   Direction: 180°S
Pressure: 29.89"   Gusts: NA
Location:  44.79°N, 122.62°W
Report Text: KSLE 231856Z 18012KT 10SM FEW024 SCT039 BKN047 15/12 A2989 RMK AO2 SLP122 T01500122
Loading
Personal Weather Stations






























Interactive Weather Map
Tropical Storm Tracking
New forecast layout! Learn more

10-Day Weather Forecast

Advertisements
Track Severe Weather on mobile